createdAt,value
2023-01-18T00:02:11.286Z,2.64
2023-01-18T00:04:49.218Z,2.73
2023-01-18T00:07:26.780Z,2.48
2023-01-18T00:10:09.526Z,2.52
2023-01-18T00:12:55.186Z,2.41
2023-01-18T00:15:42.202Z,2.61
2023-01-18T00:18:34.895Z,2.56
2023-01-18T00:21:19.059Z,2.53
2023-01-18T00:24:04.548Z,2.42
2023-01-18T00:26:59.716Z,2.22
2023-01-18T00:29:36.219Z,2.50
2023-01-18T00:32:14.332Z,2.53
2023-01-18T00:35:03.576Z,2.46
2023-01-18T00:37:45.972Z,2.39
2023-01-18T00:40:29.014Z,2.44
2023-01-18T00:43:23.041Z,2.43
2023-01-18T00:46:03.968Z,2.43
2023-01-18T00:48:35.859Z,2.43
2023-01-18T00:51:18.843Z,2.52
2023-01-18T00:54:10.066Z,2.56
2023-01-18T00:56:51.244Z,2.80
2023-01-18T00:59:31.772Z,2.67
2023-01-18T01:02:07.168Z,2.66
2023-01-18T01:04:55.719Z,2.49
2023-01-18T01:07:28.617Z,2.51
2023-01-18T01:09:58.956Z,2.55
2023-01-18T01:12:52.572Z,2.54
2023-01-18T01:15:43.772Z,2.57
2023-01-18T01:18:38.769Z,2.63
2023-01-18T01:21:29.708Z,2.73
2023-01-18T01:24:21.012Z,2.43
2023-01-18T01:26:56.871Z,2.40
2023-01-18T01:32:15.572Z,2.53
2023-01-18T01:34:49.462Z,2.60
2023-01-18T01:37:21.518Z,2.43
2023-01-18T01:40:00.588Z,2.41
2023-01-18T01:42:41.238Z,2.53
2023-01-18T01:45:19.108Z,2.59
2023-01-18T01:47:55.985Z,2.68
2023-01-18T01:50:34.076Z,2.65
2023-01-18T01:53:16.687Z,2.79
2023-01-18T01:56:05.047Z,2.87
2023-01-18T01:58:41.848Z,2.84
2023-01-18T02:01:23.164Z,2.83
2023-01-18T02:04:21.494Z,2.83
2023-01-18T02:06:57.982Z,2.82
2023-01-18T02:09:39.455Z,2.84
2023-01-18T02:12:14.841Z,2.75
2023-01-18T02:14:53.576Z,2.89
2023-01-18T02:18:03.711Z,2.96
2023-01-18T02:20:55.554Z,2.94
2023-01-18T02:23:53.685Z,2.99
2023-01-18T02:27:03.328Z,3.08
2023-01-18T02:29:59.751Z,3.10
2023-01-18T02:32:58.436Z,3.11
2023-01-18T02:35:40.105Z,3.16
2023-01-18T02:38:26.938Z,3.14
2023-01-18T02:41:21.252Z,3.21
2023-01-18T02:44:17.987Z,3.16
2023-01-18T02:47:09.405Z,3.17
2023-01-18T02:49:41.438Z,3.24
2023-01-18T02:52:49.776Z,3.32
2023-01-18T02:55:44.165Z,3.44
2023-01-18T02:58:34.618Z,3.58
2023-01-18T03:01:27.053Z,3.64
2023-01-18T03:04:09.767Z,3.66
2023-01-18T03:06:50.287Z,3.76
2023-01-18T03:09:34.530Z,3.84
2023-01-18T03:12:46.787Z,3.96
2023-01-18T03:15:57.557Z,3.95
2023-01-18T03:19:00.845Z,4.00
2023-01-18T03:21:53.917Z,4.09
2023-01-18T03:24:32.439Z,4.21
2023-01-18T03:27:21.610Z,4.20
2023-01-18T03:30:15.968Z,4.24
2023-01-18T03:33:07.270Z,4.28
2023-01-18T03:35:48.963Z,4.34
2023-01-18T03:38:35.741Z,4.32
2023-01-18T03:41:10.588Z,4.29
2023-01-18T03:43:48.673Z,4.36
2023-01-18T03:46:30.855Z,4.40
2023-01-18T03:49:06.590Z,4.37
2023-01-18T03:51:59.745Z,4.48
2023-01-18T03:55:10.368Z,4.54
2023-01-18T03:57:50.361Z,4.59
2023-01-18T04:00:28.714Z,4.60
2023-01-18T04:03:06.498Z,4.64
2023-01-18T04:05:45.889Z,4.71
2023-01-18T04:08:22.738Z,4.67
2023-01-18T04:11:02.093Z,4.70
2023-01-18T04:13:39.757Z,4.68
2023-01-18T04:16:16.933Z,4.64
2023-01-18T04:18:49.029Z,4.71
2023-01-18T04:21:24.118Z,4.79
2023-01-18T04:23:56.920Z,4.79
2023-01-18T04:26:34.563Z,4.74
2023-01-18T04:29:17.886Z,4.76
2023-01-18T04:31:56.045Z,4.85
2023-01-18T04:34:31.792Z,4.91
2023-01-18T04:37:04.521Z,4.80
2023-01-18T04:39:49.929Z,4.75
2023-01-18T04:42:33.861Z,4.73
2023-01-18T04:45:23.116Z,4.83
2023-01-18T04:48:09.270Z,4.87
2023-01-18T04:50:53.021Z,4.89
2023-01-18T04:53:31.460Z,4.92
2023-01-18T04:56:20.722Z,4.88
2023-01-18T04:58:58.327Z,4.98
2023-01-18T05:01:30.998Z,4.98
2023-01-18T05:04:12.262Z,4.89
2023-01-18T05:06:53.391Z,4.93
2023-01-18T05:09:38.890Z,5.00
2023-01-18T05:12:22.037Z,4.93
2023-01-18T05:15:02.834Z,4.78
2023-01-18T05:17:43.345Z,4.82
2023-01-18T05:20:21.673Z,4.88
2023-01-18T05:23:02.079Z,4.94
2023-01-18T05:25:53.913Z,4.87
2023-01-18T05:28:32.926Z,4.83
2023-01-18T05:31:16.217Z,4.82
2023-01-18T05:34:02.304Z,4.90
2023-01-18T05:36:40.746Z,5.06
2023-01-18T05:39:23.121Z,4.90
2023-01-18T05:42:03.879Z,4.92
2023-01-18T05:44:44.051Z,4.80
2023-01-18T05:47:30.767Z,4.64
2023-01-18T05:50:10.940Z,4.64
2023-01-18T05:52:48.369Z,4.54
2023-01-18T05:55:25.468Z,4.54
2023-01-18T05:58:04.103Z,4.55
2023-01-18T06:00:42.156Z,4.52
2023-01-18T06:03:26.794Z,4.42
2023-01-18T06:06:12.059Z,4.30
2023-01-18T06:08:50.683Z,4.32
2023-01-18T06:11:35.342Z,4.30
2023-01-18T06:14:12.831Z,4.31
2023-01-18T06:16:58.599Z,3.94
2023-01-18T06:19:39.525Z,3.82
2023-01-18T06:22:18.151Z,3.80
2023-01-18T06:24:53.323Z,3.88
2023-01-18T06:27:41.961Z,3.93
2023-01-18T06:30:22.727Z,4.05
2023-01-18T06:33:04.912Z,4.00
2023-01-18T06:35:46.749Z,3.88
2023-01-18T06:38:30.721Z,3.90
2023-01-18T06:41:09.701Z,3.89
2023-01-18T06:43:52.637Z,3.90
2023-01-18T06:46:32.901Z,4.04
2023-01-18T06:49:16.444Z,4.03
2023-01-18T06:51:54.804Z,3.96
2023-01-18T06:54:34.533Z,3.89
2023-01-18T06:57:32.012Z,3.72
2023-01-18T07:00:18.478Z,3.72
2023-01-18T07:03:01.497Z,3.81
2023-01-18T07:05:45.510Z,3.79
2023-01-18T07:08:24.117Z,3.86
2023-01-18T07:11:04.304Z,3.92
2023-01-18T07:13:52.490Z,4.05
2023-01-18T07:16:32.696Z,4.20
2023-01-18T07:19:21.157Z,4.17
2023-01-18T07:22:04.928Z,4.19
2023-01-18T07:24:46.353Z,4.20
2023-01-18T07:27:27.747Z,4.09
2023-01-18T07:30:11.190Z,3.95
2023-01-18T07:32:59.357Z,3.94
2023-01-18T07:35:37.886Z,3.98
2023-01-18T07:38:24.151Z,3.94
2023-01-18T07:41:05.029Z,3.90
2023-01-18T07:43:45.737Z,3.91
2023-01-18T07:46:20.879Z,3.88
2023-01-18T07:48:53.893Z,3.82
2023-01-18T07:51:35.152Z,3.77
2023-01-18T07:54:21.884Z,3.76
2023-01-18T07:57:00.746Z,3.63
2023-01-18T07:59:42.184Z,3.53
2023-01-18T08:02:28.978Z,3.37
2023-01-18T08:05:10.904Z,3.47
2023-01-18T08:07:47.451Z,3.44
2023-01-18T08:10:30.703Z,3.59
2023-01-18T08:13:17.427Z,3.69
2023-01-18T08:15:58.994Z,3.80
2023-01-18T08:18:37.706Z,3.97
2023-01-18T08:21:18.998Z,3.92
2023-01-18T08:24:03.199Z,4.00
2023-01-18T08:26:44.056Z,4.08
2023-01-18T08:29:18.829Z,4.14
2023-01-18T08:32:07.562Z,4.34
2023-01-18T08:34:45.647Z,4.33
2023-01-18T08:37:28.968Z,4.19
2023-01-18T08:40:07.176Z,4.27
2023-01-18T08:42:52.715Z,4.34
2023-01-18T08:45:35.057Z,4.21
2023-01-18T08:48:10.916Z,4.20
2023-01-18T08:50:51.854Z,4.31
2023-01-18T08:53:35.110Z,4.29
2023-01-18T08:56:21.785Z,4.21
2023-01-18T08:59:02.644Z,4.26
2023-01-18T09:01:42.871Z,4.32
2023-01-18T09:04:15.738Z,4.30
2023-01-18T09:06:57.012Z,4.10
2023-01-18T09:09:32.075Z,4.12
2023-01-18T09:12:07.909Z,4.04
2023-01-18T09:14:48.682Z,4.12
2023-01-18T09:17:27.125Z,4.03
2023-01-18T09:20:09.722Z,4.07
2023-01-18T09:22:47.998Z,4.27
2023-01-18T09:25:28.690Z,4.44
2023-01-18T09:28:03.698Z,4.48
2023-01-18T09:30:41.855Z,4.49
2023-01-18T09:33:20.467Z,4.61
2023-01-18T09:36:02.085Z,4.67
2023-01-18T09:38:40.301Z,4.54
2023-01-18T09:41:27.873Z,4.51
2023-01-18T09:44:16.040Z,4.33
2023-01-18T09:47:01.261Z,4.22
2023-01-18T09:49:52.244Z,4.06
2023-01-18T09:52:51.719Z,3.93
2023-01-18T09:55:45.415Z,3.88
2023-01-18T09:58:47.366Z,3.88
2023-01-18T10:01:26.221Z,3.81
2023-01-18T10:04:15.323Z,3.90
2023-01-18T10:07:05.106Z,3.81
2023-01-18T10:09:56.028Z,3.88
2023-01-18T10:12:46.977Z,3.75
2023-01-18T10:15:49.326Z,3.93
2023-01-18T10:18:22.984Z,3.95
2023-01-18T10:21:22.014Z,3.99
2023-01-18T10:24:42.185Z,4.04
2023-01-18T10:27:55.338Z,4.18
2023-01-18T10:30:50.685Z,4.41
2023-01-18T10:33:29.025Z,4.47
2023-01-18T10:36:11.777Z,4.45
2023-01-18T10:38:44.997Z,4.48
2023-01-18T10:41:35.483Z,4.52
2023-01-18T10:44:18.736Z,4.74
2023-01-18T10:47:02.944Z,4.72
2023-01-18T10:49:51.463Z,4.77
2023-01-18T10:52:35.697Z,5.06
2023-01-18T10:55:16.067Z,5.15
2023-01-18T10:58:02.369Z,5.32
2023-01-18T11:00:43.039Z,5.44
2023-01-18T11:03:22.729Z,5.51
2023-01-18T11:06:03.526Z,5.61
2023-01-18T11:08:45.322Z,5.42
2023-01-18T11:11:45.416Z,5.44
2023-01-18T11:14:39.788Z,5.35
2023-01-18T11:17:17.436Z,5.43
2023-01-18T11:20:19.189Z,5.62
2023-01-18T11:23:21.701Z,5.42
2023-01-18T11:26:19.549Z,5.49
2023-01-18T11:29:07.018Z,5.50
2023-01-18T11:32:05.965Z,5.64
2023-01-18T11:34:49.086Z,5.63
2023-01-18T11:37:40.069Z,5.58
2023-01-18T11:41:07.948Z,5.65
2023-01-18T11:43:49.618Z,5.63
2023-01-18T11:46:28.480Z,5.44
2023-01-18T11:49:25.317Z,5.41
2023-01-18T11:52:12.784Z,5.40
2023-01-18T11:54:57.492Z,5.53
2023-01-18T11:57:35.227Z,5.57
2023-01-18T12:00:19.030Z,5.97
2023-01-18T12:03:27.293Z,6.05
2023-01-18T12:06:46.822Z,6.27
2023-01-18T12:09:30.713Z,6.45
2023-01-18T12:12:19.285Z,6.60
2023-01-18T12:15:32.661Z,6.49
2023-01-18T12:18:34.826Z,6.57
2023-01-18T12:21:14.549Z,6.47
2023-01-18T12:24:12.421Z,6.61
2023-01-18T12:27:00.440Z,6.64
2023-01-18T12:29:59.911Z,6.67
2023-01-18T12:32:51.954Z,6.81
2023-01-18T12:35:53.313Z,6.93
2023-01-18T12:38:35.097Z,7.12
2023-01-18T12:41:58.573Z,7.17
2023-01-18T12:44:47.916Z,7.16
2023-01-18T12:47:55.702Z,7.23
2023-01-18T12:50:36.816Z,7.31
2023-01-18T12:53:35.617Z,7.36
2023-01-18T12:56:20.260Z,7.31
2023-01-18T12:59:00.459Z,7.42
2023-01-18T13:01:40.090Z,7.22
2023-01-18T13:04:30.247Z,7.47
2023-01-18T13:07:14.677Z,7.62
2023-01-18T13:10:04.945Z,7.39
2023-01-18T13:12:40.666Z,7.37
2023-01-18T13:15:29.928Z,7.37
2023-01-18T13:18:23.854Z,7.50
2023-01-18T13:21:10.586Z,7.44
2023-01-18T13:24:03.753Z,7.28
2023-01-18T13:26:40.412Z,7.24
2023-01-18T13:29:25.851Z,7.16
2023-01-18T13:32:02.665Z,7.12
2023-01-18T13:34:47.962Z,7.05
2023-01-18T13:37:42.903Z,7.00
2023-01-18T13:40:38.078Z,7.03
2023-01-18T13:43:37.935Z,6.83
2023-01-18T13:46:30.441Z,6.78
2023-01-18T13:49:43.741Z,6.69
2023-01-18T13:52:31.528Z,6.70
2023-01-18T13:55:09.326Z,6.65
2023-01-18T13:58:04.301Z,6.66
2023-01-18T14:00:38.883Z,6.62
2023-01-18T14:03:31.422Z,6.65
2023-01-18T14:06:17.760Z,6.69
2023-01-18T14:09:09.584Z,6.67
2023-01-18T14:11:45.991Z,6.58
2023-01-18T14:14:35.751Z,6.59
2023-01-18T14:17:25.470Z,6.42
2023-01-18T14:20:46.713Z,6.27
2023-01-18T14:23:49.337Z,6.29
2023-01-18T14:26:22.532Z,6.30
2023-01-18T14:29:24.284Z,6.26
2023-01-18T14:32:09.257Z,6.28
2023-01-18T14:34:45.752Z,6.14
2023-01-18T14:37:34.929Z,6.16
2023-01-18T14:40:23.244Z,6.15
2023-01-18T14:43:03.648Z,6.32
2023-01-18T14:45:40.988Z,6.40
2023-01-18T14:48:27.506Z,6.33
2023-01-18T14:51:12.675Z,6.23
2023-01-18T14:53:54.667Z,6.18
2023-01-18T14:56:41.562Z,6.13
2023-01-18T14:59:22.905Z,6.12
2023-01-18T15:02:02.737Z,5.97
2023-01-18T15:04:39.030Z,5.82
2023-01-18T15:07:15.998Z,5.66
2023-01-18T15:09:51.088Z,5.46
2023-01-18T15:12:34.439Z,5.30
2023-01-18T15:15:25.168Z,5.01
2023-01-18T15:18:14.379Z,4.78
2023-01-18T15:21:08.253Z,4.81
2023-01-18T15:23:42.995Z,4.90
2023-01-18T15:26:35.765Z,4.91
2023-01-18T15:29:23.906Z,4.79
2023-01-18T15:31:59.752Z,4.57
2023-01-18T15:34:39.376Z,4.32
2023-01-18T15:37:16.750Z,4.45
2023-01-18T15:39:50.594Z,4.41
2023-01-18T15:42:27.419Z,4.36
2023-01-18T15:45:02.155Z,4.35
2023-01-18T15:47:40.568Z,4.29
2023-01-18T15:50:21.658Z,4.22
2023-01-18T15:53:11.675Z,4.18
2023-01-18T15:55:56.721Z,4.20
2023-01-18T15:58:41.458Z,4.05
2023-01-18T16:01:37.715Z,3.91
2023-01-18T16:04:31.016Z,3.85
2023-01-18T16:07:36.167Z,3.72
2023-01-18T16:10:33.264Z,3.66
2023-01-18T16:13:34.042Z,3.64
2023-01-18T16:16:16.168Z,3.58
2023-01-18T16:18:54.757Z,3.65
2023-01-18T16:21:50.155Z,3.66
2023-01-18T16:24:28.530Z,3.68
2023-01-18T16:27:28.202Z,3.71
2023-01-18T16:30:05.635Z,3.75
2023-01-18T16:32:42.642Z,3.69
2023-01-18T16:35:18.228Z,3.74
2023-01-18T16:37:53.965Z,3.78
2023-01-18T16:40:30.206Z,3.84
2023-01-18T16:43:28.971Z,3.88
2023-01-18T16:46:04.715Z,3.98
2023-01-18T16:48:41.569Z,4.03
2023-01-18T16:51:26.105Z,4.11
2023-01-18T16:53:59.356Z,4.16
2023-01-18T16:56:39.940Z,4.19
2023-01-18T16:59:27.633Z,4.22
2023-01-18T17:02:03.534Z,4.27
2023-01-18T17:04:42.695Z,4.34
2023-01-18T17:07:26.735Z,4.43
2023-01-18T17:10:01.883Z,4.38
2023-01-18T17:12:39.135Z,4.45
2023-01-18T17:15:15.892Z,4.43
2023-01-18T17:17:46.087Z,4.31
2023-01-18T17:20:31.502Z,4.42
2023-01-18T17:23:06.781Z,4.39
2023-01-18T17:25:45.427Z,4.45
2023-01-18T17:28:27.753Z,4.49
2023-01-18T17:31:00.854Z,4.45
2023-01-18T17:33:36.221Z,4.51
2023-01-18T17:36:11.054Z,4.54
2023-01-18T17:38:52.089Z,4.58
2023-01-18T17:41:27.774Z,4.70
2023-01-18T17:44:08.458Z,4.63
2023-01-18T17:46:43.463Z,4.67
2023-01-18T17:49:21.825Z,4.59
2023-01-18T17:51:56.739Z,4.58
2023-01-18T17:54:35.061Z,4.37
2023-01-18T17:57:09.139Z,4.35
2023-01-18T17:59:48.717Z,4.33
2023-01-18T18:02:24.484Z,4.39
2023-01-18T18:04:57.164Z,4.39
2023-01-18T18:07:35.867Z,4.43
2023-01-18T18:10:09.082Z,4.39
2023-01-18T18:12:39.277Z,4.35
2023-01-18T18:15:11.735Z,4.32
2023-01-18T18:17:49.709Z,4.37
2023-01-18T18:20:23.583Z,4.37
2023-01-18T18:23:01.984Z,4.42
2023-01-18T18:25:39.214Z,4.32
2023-01-18T18:28:14.689Z,4.42
2023-01-18T18:30:54.772Z,4.27
2023-01-18T18:33:24.727Z,4.34
2023-01-18T18:36:00.244Z,4.32
2023-01-18T18:38:38.212Z,4.37
2023-01-18T18:41:15.623Z,4.44
2023-01-18T18:43:53.696Z,4.42
2023-01-18T18:46:31.214Z,4.44
2023-01-18T18:49:06.485Z,4.45
2023-01-18T18:51:41.613Z,4.49
2023-01-18T18:54:18.320Z,4.40
2023-01-18T18:56:53.792Z,4.39
2023-01-18T18:59:24.749Z,4.29
2023-01-18T19:02:00.540Z,4.33
2023-01-18T19:04:35.542Z,4.30
2023-01-18T19:07:13.139Z,4.27
2023-01-18T19:09:52.973Z,4.19
2023-01-18T19:12:22.943Z,4.17
2023-01-18T19:14:55.264Z,4.13
2023-01-18T19:17:35.547Z,4.17
2023-01-18T19:20:14.057Z,4.14
2023-01-18T19:22:52.955Z,4.10
2023-01-18T19:25:30.840Z,4.08
2023-01-18T19:28:11.862Z,4.08
2023-01-18T19:31:00.911Z,4.05
2023-01-18T19:33:42.714Z,4.04
2023-01-18T19:36:24.936Z,4.08
2023-01-18T19:39:00.167Z,4.04
2023-01-18T19:41:38.336Z,4.13
2023-01-18T19:44:13.229Z,4.12
2023-01-18T19:46:54.124Z,4.10
2023-01-18T19:49:35.204Z,4.08
2023-01-18T19:52:12.819Z,4.10
2023-01-18T19:54:50.383Z,4.16
2023-01-18T19:57:33.239Z,4.12
2023-01-18T20:00:19.609Z,4.19
2023-01-18T20:02:54.811Z,4.21
2023-01-18T20:05:32.125Z,4.19
2023-01-18T20:08:09.689Z,4.24
2023-01-18T20:10:50.101Z,4.29
2023-01-18T20:13:30.158Z,4.26
2023-01-18T20:16:05.131Z,4.26
2023-01-18T20:18:46.470Z,4.24
2023-01-18T20:21:25.279Z,4.17
2023-01-18T20:24:05.864Z,4.23
2023-01-18T20:26:47.232Z,4.24
2023-01-18T20:29:33.895Z,4.29
2023-01-18T20:32:16.263Z,4.27
2023-01-18T20:34:52.088Z,4.22
2023-01-18T20:37:51.404Z,4.19
2023-01-18T20:40:34.839Z,4.24
2023-01-18T20:43:16.506Z,4.25
2023-01-18T20:46:14.752Z,4.25
2023-01-18T20:48:53.502Z,4.32
2023-01-18T20:51:34.397Z,4.32
2023-01-18T20:54:12.152Z,4.24
2023-01-18T20:56:49.812Z,4.18
2023-01-18T20:59:33.248Z,4.09
2023-01-18T21:02:15.824Z,4.15
2023-01-18T21:04:54.283Z,4.27
2023-01-18T21:07:32.764Z,4.26
2023-01-18T21:10:11.029Z,4.26
2023-01-18T21:12:52.245Z,4.26
2023-01-18T21:15:32.909Z,4.32
2023-01-18T21:18:17.209Z,4.26
2023-01-18T21:21:13.707Z,4.22
2023-01-18T21:24:02.195Z,4.31
2023-01-18T21:26:58.744Z,4.33
2023-01-18T21:29:37.042Z,4.27
2023-01-18T21:32:25.366Z,4.33
2023-01-18T21:35:04.345Z,4.39
2023-01-18T21:38:06.100Z,4.39
2023-01-18T21:40:49.821Z,4.40
2023-01-18T21:43:46.267Z,4.32
2023-01-18T21:46:24.857Z,4.38
2023-01-18T21:49:43.016Z,4.31
2023-01-18T21:52:51.447Z,4.39
2023-01-18T21:55:40.356Z,4.42
2023-01-18T21:58:36.258Z,4.50
2023-01-18T22:01:22.886Z,4.43
2023-01-18T22:04:19.225Z,4.30
2023-01-18T22:07:00.715Z,4.42
2023-01-18T22:10:02.880Z,4.40
2023-01-18T22:12:45.160Z,4.41
2023-01-18T22:15:23.231Z,4.27
2023-01-18T22:17:59.575Z,4.44
2023-01-18T22:20:31.027Z,4.43
2023-01-18T22:23:17.893Z,4.40
2023-01-18T22:26:03.017Z,4.36
2023-01-18T22:28:38.829Z,4.28
2023-01-18T22:31:29.910Z,4.31
2023-01-18T22:34:09.995Z,4.29
2023-01-18T22:36:52.560Z,4.34
2023-01-18T22:39:36.121Z,4.31
2023-01-18T22:42:23.235Z,4.33
2023-01-18T22:45:07.374Z,4.31
2023-01-18T22:47:42.953Z,4.22
2023-01-18T22:50:22.968Z,4.23
2023-01-18T22:53:04.446Z,4.19
2023-01-18T22:55:43.470Z,4.27
2023-01-18T22:58:27.407Z,4.20
2023-01-18T23:01:16.183Z,4.32
2023-01-18T23:04:11.541Z,4.36
2023-01-18T23:06:52.355Z,4.34
2023-01-18T23:09:38.700Z,4.27
2023-01-18T23:12:19.708Z,4.28
2023-01-18T23:15:10.106Z,4.17
2023-01-18T23:17:45.955Z,4.23
2023-01-18T23:20:27.599Z,4.27
2023-01-18T23:23:05.446Z,4.25
2023-01-18T23:25:51.010Z,4.29
2023-01-18T23:28:48.112Z,4.25
2023-01-18T23:31:28.780Z,4.24
2023-01-18T23:34:08.943Z,4.25
2023-01-18T23:36:52.772Z,4.33
2023-01-18T23:39:50.501Z,4.21
2023-01-18T23:42:44.433Z,4.19
2023-01-18T23:45:38.146Z,4.13
2023-01-18T23:48:35.056Z,4.24
2023-01-18T23:51:29.681Z,4.25
2023-01-18T23:54:16.981Z,4.24
2023-01-18T23:57:04.012Z,4.17
2023-01-18T23:59:42.042Z,4.22
